createdAt,value
2023-03-13T00:00:17.730Z,7.80
2023-03-13T00:03:22.973Z,7.75
2023-03-13T00:06:34.902Z,8.25
2023-03-13T00:09:40.407Z,7.75
2023-03-13T00:12:45.938Z,8.00
2023-03-13T00:16:01.152Z,7.57
2023-03-13T00:19:08.412Z,8.18
2023-03-13T00:22:13.823Z,7.45
2023-03-13T00:25:19.077Z,7.32
2023-03-13T00:28:24.354Z,7.60
2023-03-13T00:31:32.177Z,6.85
2023-03-13T00:34:37.617Z,6.80
2023-03-13T00:37:45.108Z,7.97
2023-03-13T00:40:50.540Z,5.93
2023-03-13T00:43:56.479Z,7.43
2023-03-13T00:47:02.029Z,7.03
2023-03-13T00:50:07.496Z,6.03
2023-03-13T00:53:12.590Z,7.15
2023-03-13T00:56:19.873Z,6.47
2023-03-13T00:59:25.235Z,6.53
2023-03-13T01:02:31.303Z,6.88
2023-03-13T01:05:36.661Z,8.13
2023-03-13T01:08:42.663Z,6.45
2023-03-13T01:11:47.916Z,6.30
2023-03-13T01:14:53.579Z,6.65
2023-03-13T01:18:01.321Z,7.03
2023-03-13T01:21:07.713Z,6.50
2023-03-13T01:24:13.801Z,6.82
2023-03-13T01:27:19.712Z,6.72
2023-03-13T01:30:25.828Z,6.72
2023-03-13T01:33:31.087Z,5.80
2023-03-13T01:36:38.173Z,6.97
2023-03-13T01:39:43.291Z,6.57
2023-03-13T01:42:59.862Z,7.45
2023-03-13T01:46:14.016Z,6.20
2023-03-13T01:49:33.766Z,7.10
2023-03-13T01:52:53.204Z,7.40
2023-03-13T01:56:07.369Z,7.05
2023-03-13T01:59:17.227Z,7.35
2023-03-13T02:02:24.390Z,8.25
2023-03-13T02:05:31.566Z,8.02
2023-03-13T02:08:43.153Z,8.10
2023-03-13T02:12:07.672Z,7.72
2023-03-13T02:15:19.334Z,8.15
2023-03-13T02:18:26.324Z,7.93
2023-03-13T02:21:47.380Z,7.78
2023-03-13T02:25:15.857Z,7.82
2023-03-13T02:28:25.777Z,7.88
2023-03-13T02:31:31.976Z,8.82
2023-03-13T02:34:40.715Z,8.90
2023-03-13T02:37:52.229Z,8.45
2023-03-13T02:41:01.738Z,8.35
2023-03-13T02:44:08.575Z,9.02
2023-03-13T02:47:20.058Z,7.88
2023-03-13T02:50:25.418Z,8.27
2023-03-13T02:53:32.475Z,8.27
2023-03-13T02:56:41.165Z,8.82
2023-03-13T02:59:49.284Z,9.60
2023-03-13T03:02:56.331Z,9.30
2023-03-13T03:06:01.999Z,9.38
2023-03-13T03:09:08.200Z,8.82
2023-03-13T03:12:15.573Z,9.38
2023-03-13T03:15:23.115Z,9.23
2023-03-13T03:18:28.065Z,8.95
2023-03-13T03:21:34.414Z,8.23
2023-03-13T03:24:39.581Z,9.55
2023-03-13T03:27:45.160Z,9.77
2023-03-13T03:30:50.887Z,8.70
2023-03-13T03:33:57.906Z,8.43
2023-03-13T03:37:03.269Z,8.93
2023-03-13T03:40:10.172Z,9.40
2023-03-13T03:43:15.624Z,8.93
2023-03-13T03:46:20.780Z,9.65
2023-03-13T03:49:26.885Z,9.07
2023-03-13T03:52:32.723Z,9.48
2023-03-13T03:55:38.180Z,9.45
2023-03-13T03:58:43.942Z,9.10
2023-03-13T04:02:05.477Z,8.90
2023-03-13T04:05:12.540Z,8.73
2023-03-13T04:08:19.145Z,8.55
2023-03-13T04:11:24.567Z,9.00
2023-03-13T04:14:33.360Z,8.70
2023-03-13T04:17:42.572Z,8.32
2023-03-13T04:20:49.360Z,8.95
2023-03-13T04:23:55.060Z,8.35
2023-03-13T04:27:02.787Z,8.80
2023-03-13T04:30:09.698Z,9.30
2023-03-13T04:33:33.689Z,9.15
2023-03-13T04:36:59.927Z,9.40
2023-03-13T04:40:07.330Z,8.98
2023-03-13T04:43:18.590Z,10.23
2023-03-13T04:46:37.341Z,10.38
2023-03-13T04:50:05.174Z,10.20
2023-03-13T04:53:26.365Z,8.00
2023-03-13T04:57:01.243Z,8.68
2023-03-13T05:00:21.018Z,8.60
2023-03-13T05:03:47.303Z,9.50
2023-03-13T05:07:11.412Z,9.07
2023-03-13T05:10:38.928Z,7.65
2023-03-13T05:13:44.847Z,7.28
2023-03-13T05:17:13.839Z,7.68
2023-03-13T05:20:34.545Z,8.25
2023-03-13T05:23:59.333Z,7.30
2023-03-13T05:27:32.127Z,7.50
2023-03-13T05:30:58.039Z,8.43
2023-03-13T05:34:17.409Z,9.55
2023-03-13T05:37:43.606Z,12.25
2023-03-13T05:41:04.678Z,9.80
2023-03-13T05:44:28.637Z,9.75
2023-03-13T05:47:52.778Z,9.82
2023-03-13T05:50:58.207Z,8.98
2023-03-13T05:54:24.667Z,9.75
2023-03-13T05:58:03.118Z,8.13
2023-03-13T06:01:31.935Z,9.73
2023-03-13T06:04:57.952Z,9.20
2023-03-13T06:08:04.014Z,9.10
2023-03-13T06:11:09.415Z,8.60
2023-03-13T06:14:15.344Z,11.77
2023-03-13T06:17:36.803Z,9.30
2023-03-13T06:20:42.816Z,9.63
2023-03-13T06:23:48.677Z,9.07
2023-03-13T06:26:54.591Z,9.63
2023-03-13T06:30:00.304Z,8.73
2023-03-13T06:33:06.453Z,9.65
2023-03-13T06:36:12.477Z,9.48
2023-03-13T06:39:17.913Z,9.40
2023-03-13T06:42:23.192Z,9.40
2023-03-13T06:45:28.362Z,9.88
2023-03-13T06:48:34.060Z,9.23
2023-03-13T06:51:39.825Z,9.43
2023-03-13T06:54:45.427Z,8.63
2023-03-13T06:57:53.343Z,8.05
2023-03-13T07:00:59.882Z,7.78
2023-03-13T07:04:05.678Z,8.93
2023-03-13T07:07:22.203Z,8.30
2023-03-13T07:10:35.409Z,8.77
2023-03-13T07:13:40.944Z,9.30
2023-03-13T07:16:47.203Z,8.85
2023-03-13T07:19:52.558Z,13.45
2023-03-13T07:22:58.194Z,11.15
2023-03-13T07:26:07.881Z,10.45
2023-03-13T07:29:13.096Z,10.70
2023-03-13T07:32:18.756Z,10.32
2023-03-13T07:35:24.414Z,10.63
2023-03-13T07:38:30.027Z,10.52
2023-03-13T07:41:35.272Z,11.90
2023-03-13T07:44:40.318Z,12.30
2023-03-13T07:47:45.469Z,11.07
2023-03-13T07:50:50.963Z,10.48
2023-03-13T07:53:56.597Z,11.55
2023-03-13T07:57:03.210Z,11.30
2023-03-13T08:00:15.375Z,11.10
2023-03-13T08:03:21.509Z,12.25
2023-03-13T08:06:27.780Z,11.63
2023-03-13T08:09:33.685Z,11.73
2023-03-13T08:12:39.049Z,11.80
2023-03-13T08:15:44.219Z,11.63
2023-03-13T08:18:52.981Z,12.45
2023-03-13T08:21:58.194Z,11.18
2023-03-13T08:25:03.720Z,11.43
2023-03-13T08:28:09.144Z,11.52
2023-03-13T08:31:20.196Z,12.40
2023-03-13T08:34:25.901Z,13.50
2023-03-13T08:37:31.345Z,12.57
2023-03-13T08:40:36.298Z,11.60
2023-03-13T08:43:42.245Z,12.13
2023-03-13T08:46:49.356Z,11.05
2023-03-13T08:49:55.563Z,11.02
2023-03-13T08:53:01.067Z,11.77
2023-03-13T08:56:07.439Z,10.38
2023-03-13T08:59:12.952Z,11.45
2023-03-13T09:02:20.465Z,11.82
2023-03-13T09:05:25.925Z,11.05
2023-03-13T09:08:32.142Z,10.15
2023-03-13T09:11:39.673Z,10.05
2023-03-13T09:14:44.841Z,10.55
2023-03-13T09:17:50.439Z,11.27
2023-03-13T09:20:56.127Z,10.65
2023-03-13T09:24:02.509Z,8.95
2023-03-13T09:27:07.605Z,11.73
2023-03-13T09:30:14.702Z,8.18
2023-03-13T09:33:21.615Z,8.65
2023-03-13T09:36:27.932Z,8.93
2023-03-13T09:39:33.242Z,8.88
2023-03-13T09:42:48.020Z,8.30
2023-03-13T09:45:57.665Z,8.98
2023-03-13T09:49:11.154Z,8.48
2023-03-13T09:52:22.713Z,8.73
2023-03-13T09:59:01.995Z,7.57
2023-03-13T10:02:34.458Z,7.63
2023-03-13T10:05:46.856Z,8.98
2023-03-13T10:08:52.979Z,6.35
2023-03-13T10:12:13.638Z,5.70
2023-03-13T10:15:31.416Z,6.22
2023-03-13T10:18:37.928Z,5.72
2023-03-13T10:21:48.267Z,5.10
2023-03-13T10:25:00.766Z,5.40
2023-03-13T10:28:11.053Z,5.88
2023-03-13T10:31:38.167Z,4.53
2023-03-13T10:34:50.840Z,5.85
2023-03-13T10:38:10.483Z,5.60
2023-03-13T10:41:37.090Z,5.72
2023-03-13T10:44:44.977Z,5.47
2023-03-13T10:47:55.811Z,4.88
2023-03-13T10:51:02.414Z,4.72
2023-03-13T10:54:40.070Z,4.75
2023-03-13T10:58:04.294Z,4.30
2023-03-13T11:01:25.163Z,4.88
2023-03-13T11:04:37.948Z,5.80
2023-03-13T11:07:45.658Z,4.38
2023-03-13T11:10:55.761Z,4.35
2023-03-13T11:14:14.030Z,4.90
2023-03-13T11:17:26.362Z,4.32
2023-03-13T11:20:36.716Z,5.00
2023-03-13T11:23:48.213Z,4.30
2023-03-13T11:27:09.246Z,3.88
2023-03-13T11:30:38.868Z,4.20
2023-03-13T11:34:04.953Z,4.95
2023-03-13T11:37:15.764Z,4.00
2023-03-13T11:40:46.949Z,3.10
2023-03-13T11:43:58.268Z,4.43
2023-03-13T11:47:21.147Z,4.40
2023-03-13T11:50:38.204Z,4.75
2023-03-13T11:54:18.565Z,6.03
2023-03-13T11:57:52.448Z,5.05
2023-03-13T12:01:12.440Z,5.22
2023-03-13T12:04:34.867Z,4.15
2023-03-13T12:07:47.656Z,5.22
2023-03-13T12:11:11.394Z,5.28
2023-03-13T12:14:24.092Z,4.25
2023-03-13T12:17:37.550Z,4.15
2023-03-13T12:20:58.696Z,4.45
2023-03-13T12:24:12.906Z,4.38
2023-03-13T12:27:25.934Z,4.78
2023-03-13T12:30:43.701Z,4.35
2023-03-13T12:34:07.967Z,3.33
2023-03-13T12:37:19.054Z,3.13
2023-03-13T12:40:45.706Z,3.33
2023-03-13T12:44:07.253Z,4.80
2023-03-13T12:47:36.273Z,4.00
2023-03-13T12:50:57.889Z,4.53
2023-03-13T12:54:15.509Z,3.90
2023-03-13T12:57:47.118Z,4.15
2023-03-13T13:04:07.270Z,4.72
2023-03-13T13:07:53.098Z,3.90
2023-03-13T13:11:36.874Z,3.78
2023-03-13T13:14:50.813Z,3.95
2023-03-13T13:18:03.814Z,4.80
2023-03-13T13:21:24.305Z,4.95
2023-03-13T13:24:52.422Z,5.00
2023-03-13T13:28:32.091Z,4.13
2023-03-13T13:32:00.500Z,4.72
2023-03-13T13:35:28.722Z,5.00
2023-03-13T13:38:40.563Z,4.75
2023-03-13T13:41:46.241Z,5.18
2023-03-13T13:45:21.170Z,5.00
2023-03-13T13:48:37.072Z,4.43
2023-03-13T13:52:03.662Z,4.75
2023-03-13T13:55:30.576Z,4.38
2023-03-13T13:58:40.940Z,5.22
2023-03-13T14:01:47.471Z,4.28
2023-03-13T14:05:01.043Z,4.35
2023-03-13T14:08:45.368Z,4.00
2023-03-13T14:11:51.092Z,5.88
2023-03-13T14:15:14.451Z,3.75
2023-03-13T14:18:28.011Z,5.13
2023-03-13T14:21:34.920Z,4.85
2023-03-13T14:24:40.765Z,4.70
2023-03-13T14:27:48.832Z,4.90
2023-03-13T14:30:57.586Z,4.43
2023-03-13T14:34:06.872Z,4.82
2023-03-13T14:37:42.090Z,4.97
2023-03-13T14:40:48.201Z,4.57
2023-03-13T14:43:53.794Z,4.07
2023-03-13T14:47:04.738Z,4.97
2023-03-13T14:50:15.101Z,4.63
2023-03-13T14:53:22.862Z,4.15
2023-03-13T14:56:42.690Z,4.82
2023-03-13T14:59:48.758Z,5.10
2023-03-13T15:03:13.597Z,5.90
2023-03-13T15:06:22.403Z,4.97
2023-03-13T15:09:28.128Z,4.25
2023-03-13T15:12:43.930Z,5.55
2023-03-13T15:15:50.313Z,5.47
2023-03-13T15:18:56.855Z,4.90
2023-03-13T15:22:02.565Z,4.95
2023-03-13T15:25:21.008Z,5.00
2023-03-13T15:28:26.598Z,4.85
2023-03-13T15:31:32.983Z,5.03
2023-03-13T15:34:38.254Z,5.07
2023-03-13T15:37:43.686Z,5.32
2023-03-13T15:40:50.271Z,4.85
2023-03-13T15:43:57.197Z,5.40
2023-03-13T15:47:02.912Z,6.00
2023-03-13T15:50:19.767Z,5.53
2023-03-13T15:53:28.022Z,5.55
2023-03-13T15:56:38.635Z,5.97
2023-03-13T15:59:44.681Z,5.87
2023-03-13T16:02:50.538Z,5.28
2023-03-13T16:05:57.237Z,5.45
2023-03-13T16:09:06.917Z,5.50
2023-03-13T16:12:13.319Z,5.70
2023-03-13T16:15:18.631Z,5.40
2023-03-13T16:18:25.127Z,5.63
2023-03-13T16:21:33.356Z,5.55
2023-03-13T16:24:39.861Z,6.90
2023-03-13T16:27:45.236Z,6.00
2023-03-13T16:30:50.919Z,5.53
2023-03-13T16:33:58.288Z,5.63
2023-03-13T16:37:17.442Z,5.13
2023-03-13T16:40:27.470Z,6.38
2023-03-13T16:43:32.909Z,5.75
2023-03-13T16:46:41.378Z,5.68
2023-03-13T16:49:47.665Z,6.78
2023-03-13T16:52:55.656Z,6.57
2023-03-13T16:56:01.239Z,6.60
2023-03-13T16:59:11.689Z,6.45
2023-03-13T17:02:19.679Z,5.78
2023-03-13T17:05:27.207Z,7.05
2023-03-13T17:08:32.587Z,5.75
2023-03-13T17:11:38.132Z,7.00
2023-03-13T17:14:44.050Z,6.80
2023-03-13T17:17:54.364Z,6.50
2023-03-13T17:21:00.131Z,6.33
2023-03-13T17:24:07.981Z,6.20
2023-03-13T17:27:15.731Z,7.60
2023-03-13T17:30:27.650Z,6.88
2023-03-13T17:33:32.988Z,6.68
2023-03-13T17:36:38.176Z,7.78
2023-03-13T17:39:44.948Z,9.05
2023-03-13T17:42:50.606Z,10.70
2023-03-13T17:45:55.805Z,10.30
2023-03-13T17:49:02.762Z,9.63
2023-03-13T17:52:13.339Z,9.60
2023-03-13T17:55:19.098Z,10.85
2023-03-13T17:58:24.336Z,10.35
2023-03-13T18:01:31.793Z,8.50
2023-03-13T18:04:36.950Z,9.55
2023-03-13T18:07:44.640Z,9.55
2023-03-13T18:10:49.848Z,8.60
2023-03-13T18:13:55.571Z,8.55
2023-03-13T18:17:01.148Z,8.32
2023-03-13T18:20:14.667Z,9.85
2023-03-13T18:23:20.157Z,9.57
2023-03-13T18:26:34.683Z,9.45
2023-03-13T18:29:41.080Z,9.57
2023-03-13T18:32:46.539Z,8.88
2023-03-13T18:35:51.737Z,9.82
2023-03-13T18:38:57.806Z,9.27
2023-03-13T18:42:03.130Z,9.30
2023-03-13T18:45:14.041Z,7.40
2023-03-13T18:48:19.437Z,7.72
2023-03-13T18:51:26.262Z,8.70
2023-03-13T18:54:32.161Z,7.30
2023-03-13T18:57:37.759Z,8.13
2023-03-13T19:00:43.184Z,8.07
2023-03-13T19:03:49.498Z,7.90
2023-03-13T19:06:54.526Z,8.02
2023-03-13T19:09:59.580Z,7.00
2023-03-13T19:13:04.669Z,6.60
2023-03-13T19:16:23.062Z,7.07
2023-03-13T19:19:29.168Z,24.70
2023-03-13T19:22:34.476Z,19.73
2023-03-13T19:25:40.072Z,7.82
2023-03-13T19:28:45.782Z,6.47
2023-03-13T19:31:51.699Z,7.43
2023-03-13T19:34:56.929Z,8.35
2023-03-13T19:38:02.760Z,8.27
2023-03-13T19:41:11.144Z,13.57
2023-03-13T19:44:18.324Z,8.27
2023-03-13T19:47:23.972Z,6.85
2023-03-13T19:50:31.476Z,8.70
2023-03-13T19:53:37.393Z,6.72
2023-03-13T19:56:50.124Z,7.20
2023-03-13T19:59:56.603Z,5.40
2023-03-13T20:03:02.583Z,5.47
2023-03-13T20:06:11.992Z,5.35
2023-03-13T20:09:18.611Z,5.40
2023-03-13T20:12:24.124Z,4.68
2023-03-13T20:15:29.988Z,5.78
2023-03-13T20:18:35.847Z,5.45
2023-03-13T20:21:43.346Z,5.10
2023-03-13T20:24:48.823Z,7.72
2023-03-13T20:27:54.848Z,6.43
2023-03-13T20:31:00.175Z,5.45
2023-03-13T20:34:06.063Z,6.25
2023-03-13T20:37:12.826Z,7.22
2023-03-13T20:40:18.643Z,6.10
2023-03-13T20:43:25.552Z,5.82
2023-03-13T20:46:32.091Z,6.70
2023-03-13T20:49:42.038Z,7.22
2023-03-13T20:52:49.500Z,7.30
2023-03-13T20:55:54.715Z,6.20
2023-03-13T20:59:00.473Z,6.40
2023-03-13T21:02:06.772Z,6.18
2023-03-13T21:05:12.090Z,6.38
2023-03-13T21:08:17.995Z,6.45
2023-03-13T21:11:24.160Z,7.63
2023-03-13T21:14:29.827Z,7.00
2023-03-13T21:17:35.764Z,6.70
2023-03-13T21:20:41.315Z,5.93
2023-03-13T21:23:47.501Z,6.22
2023-03-13T21:26:53.266Z,6.88
2023-03-13T21:29:59.524Z,6.45
2023-03-13T21:33:05.369Z,6.93
2023-03-13T21:36:12.950Z,7.07
2023-03-13T21:39:19.677Z,7.05
2023-03-13T21:42:25.457Z,8.43
2023-03-13T21:45:31.297Z,6.93
2023-03-13T21:48:39.049Z,9.50
2023-03-13T21:51:44.333Z,7.40
2023-03-13T21:54:49.859Z,7.57
2023-03-13T21:57:55.182Z,8.68
2023-03-13T22:01:00.990Z,9.75
2023-03-13T22:04:06.837Z,10.70
2023-03-13T22:07:12.933Z,9.95
2023-03-13T22:10:18.700Z,10.25
2023-03-13T22:13:24.362Z,10.95
2023-03-13T22:16:29.963Z,11.20
2023-03-13T22:19:35.962Z,10.30
2023-03-13T22:22:41.352Z,11.10
2023-03-13T22:25:48.592Z,9.32
2023-03-13T22:28:54.060Z,8.70
2023-03-13T22:31:59.423Z,9.55
2023-03-13T22:35:05.417Z,9.65
2023-03-13T22:38:11.612Z,9.10
2023-03-13T22:41:17.869Z,9.25
2023-03-13T22:44:23.341Z,9.40
2023-03-13T22:47:28.762Z,9.77
2023-03-13T22:50:35.347Z,11.27
2023-03-13T22:53:42.089Z,9.70
2023-03-13T22:56:47.362Z,10.55
2023-03-13T22:59:54.217Z,10.98
2023-03-13T23:02:59.589Z,10.23
2023-03-13T23:06:06.940Z,10.68
2023-03-13T23:09:12.778Z,10.30
2023-03-13T23:12:18.491Z,11.18
2023-03-13T23:15:24.707Z,11.75
2023-03-13T23:18:32.180Z,11.00
2023-03-13T23:21:37.750Z,11.05
2023-03-13T23:24:44.278Z,13.13
2023-03-13T23:27:50.308Z,12.48
2023-03-13T23:30:55.958Z,10.13
2023-03-13T23:34:01.568Z,11.48
2023-03-13T23:37:07.055Z,11.30
2023-03-13T23:40:13.155Z,10.82
2023-03-13T23:43:18.823Z,11.43
2023-03-13T23:46:26.594Z,12.40
2023-03-13T23:49:32.409Z,11.60
2023-03-13T23:52:37.858Z,11.45
2023-03-13T23:55:43.486Z,11.52
2023-03-13T23:58:49.260Z,12.20
